CheckWX is a tool to help pilots better visualize weather data.  It is not intended as a substitute for an official pre-flight weather briefing.

05:33:14 UTC

SBIH TAF
Itaituba Airport
Itaituba, Brazil
TAF SBIH 232200Z 2400/2412 06004KT 9999 FEW012 TN23/2405Z TX26/2411Z PROB30 TEMPO 2410/2412 TS FEW017 FEW025CB RMK PEM

Feb-24@
00:00 UTC

Feb-24 @ 00:00 UTC

Feb-24@
12:00 UTC

Feb-24 @ 12:00 UTC

TAF SBIH 232200Z 2400/2412 06004KT 9999 FEW012 TN23/2405Z TX26/2411Z
Wind
  • 060° at 4 KTS
Cloud Levels
  • Few at 1,200' AGL

Feb-24@
10:00 UTC

Feb-24 @ 10:00 UTC

Feb-24@
12:00 UTC

Feb-24 @ 12:00 UTC

PROB30 TEMPO 2410/2412 TS FEW017 FEW025CB RMK PEM

Temporary - 30% Likelihood

Temporary - 30% Likelihood during this time.

Conditions
Thunderstorm
Cloud Levels
  • Few at 1,700' AGL
  • Few at 2,500' AGL